VYLN weather

Lonekin Airport
Lonekin, Kachin State, Burma

Public forecast

Using degrees Celsius for public forecast. Weather courtesy of forecast.io.

Closest aviation weather report (METAR) to Lonekin Airport

Report is more than 6 hours old.

Closest report is Tengchong Tuofeng Airport, 122.7 nm (227.2 km) ESE. Retrieved 2014/05/13 22:00 UTC (6 years ago):

ZUTC 132200Z 00000MPS 9999 FEW030 15/14 Q1017 NOSIG

Closest aviation forecast (TAF) to Lonekin Airport

Closest forecast is Jorhat Airport, 134.7 nm (249.5 km) WNW. Retrieved 2020/07/09 12:30 UTC (2 hours ago):

TAF VEJT 090935Z 0912/0924 20010KT 6000 SCT025 BKN090 TEMPO 0913/0915 5000 RA SCT015 SCT025 BKN080 TEMPO 0917/0918 3000 TSRA SCT025 FEW030TCU/CB BKN080 TEMPO 0923/0924 4000 RA SCT010 SCT025 FEW030TCU/CB BKN080